createdAt,value
2017-08-08T00:00:39.921Z,18.29
2017-08-08T00:03:07.372Z,18.17
2017-08-08T00:05:35.025Z,18.06
2017-08-08T00:08:02.476Z,18.24
2017-08-08T00:10:29.919Z,18.02
2017-08-08T00:12:57.710Z,18.30
2017-08-08T00:15:25.159Z,18.34
2017-08-08T00:17:52.609Z,18.20
2017-08-08T00:20:20.089Z,18.07
2017-08-08T00:22:47.561Z,18.05
2017-08-08T00:25:15.025Z,18.25
2017-08-08T00:27:42.473Z,18.40
2017-08-08T00:30:09.949Z,18.10
2017-08-08T00:32:37.435Z,18.08
2017-08-08T00:35:04.913Z,18.08
2017-08-08T00:37:33.292Z,18.13
2017-08-08T00:40:00.801Z,18.02
2017-08-08T00:42:28.841Z,17.98
2017-08-08T00:44:56.304Z,18.01
2017-08-08T00:47:24.789Z,17.91
2017-08-08T00:49:52.249Z,17.84
2017-08-08T00:52:19.701Z,17.81
2017-08-08T00:54:47.142Z,17.72
2017-08-08T00:57:14.608Z,17.81
2017-08-08T00:59:42.060Z,17.85
2017-08-08T01:02:09.520Z,17.80
2017-08-08T01:04:36.966Z,17.54
2017-08-08T01:07:04.438Z,17.41
2017-08-08T01:09:31.901Z,17.58
2017-08-08T01:11:59.344Z,17.39
2017-08-08T01:14:26.817Z,17.19
2017-08-08T01:16:54.263Z,17.22
2017-08-08T01:19:21.741Z,17.44
2017-08-08T01:21:49.199Z,17.41
2017-08-08T01:24:16.632Z,17.37
2017-08-08T01:26:44.104Z,17.33
2017-08-08T01:29:11.552Z,17.46
2017-08-08T01:31:39.012Z,17.29
2017-08-08T01:34:06.466Z,17.00
2017-08-08T01:36:33.917Z,16.79
2017-08-08T01:39:01.379Z,16.68
2017-08-08T01:41:28.825Z,16.78
2017-08-08T01:43:56.376Z,16.79
2017-08-08T01:46:23.847Z,16.67
2017-08-08T01:48:51.289Z,16.55
2017-08-08T01:51:18.757Z,16.57
2017-08-08T01:53:46.208Z,16.61
2017-08-08T01:56:13.673Z,16.64
2017-08-08T01:58:41.120Z,16.69
2017-08-08T02:01:08.595Z,16.60
2017-08-08T02:03:36.045Z,16.53
2017-08-08T02:06:03.537Z,16.43
2017-08-08T02:08:30.980Z,16.30
2017-08-08T02:10:58.425Z,16.16
2017-08-08T02:13:26.004Z,15.97
2017-08-08T02:15:53.449Z,15.88
2017-08-08T02:18:20.893Z,16.06
2017-08-08T02:20:48.357Z,16.06
2017-08-08T02:23:15.802Z,15.88
2017-08-08T02:25:43.624Z,15.82
2017-08-08T02:28:11.073Z,15.79
2017-08-08T02:30:38.522Z,15.75
2017-08-08T02:33:06.012Z,15.66
2017-08-08T02:35:33.466Z,15.66
2017-08-08T02:38:00.930Z,15.49
2017-08-08T02:40:28.428Z,15.55
2017-08-08T02:42:55.898Z,15.53
2017-08-08T02:45:23.349Z,15.53
2017-08-08T02:47:50.997Z,15.47
2017-08-08T02:50:18.452Z,15.52
2017-08-08T02:52:45.893Z,15.60
2017-08-08T02:55:13.361Z,15.63
2017-08-08T02:57:41.208Z,15.57
2017-08-08T03:00:08.653Z,15.48
2017-08-08T03:02:36.101Z,15.51
2017-08-08T03:05:03.575Z,15.50
2017-08-08T03:07:31.044Z,16.83
2017-08-08T03:09:58.512Z,16.72
2017-08-08T03:12:25.953Z,16.22
2017-08-08T03:14:53.425Z,16.77
2017-08-08T03:17:20.897Z,18.03
2017-08-08T03:19:48.333Z,17.74
2017-08-08T03:22:15.795Z,16.69
2017-08-08T03:24:43.244Z,16.36
2017-08-08T03:27:10.716Z,17.05
2017-08-08T03:29:38.166Z,17.82
2017-08-08T03:32:05.644Z,17.92
2017-08-08T03:34:33.097Z,17.59
2017-08-08T03:37:00.569Z,17.58
2017-08-08T03:39:28.043Z,17.57
2017-08-08T03:41:55.497Z,17.42
2017-08-08T03:44:22.960Z,16.69
2017-08-08T03:46:50.441Z,16.64
2017-08-08T03:49:17.885Z,16.28
2017-08-08T03:51:45.344Z,16.27
2017-08-08T03:54:12.846Z,16.31
2017-08-08T03:56:40.297Z,16.21
2017-08-08T03:59:07.773Z,16.12
2017-08-08T04:01:35.257Z,16.19
2017-08-08T04:04:02.705Z,16.09
2017-08-08T04:06:30.144Z,16.13
2017-08-08T04:08:57.622Z,16.15
2017-08-08T04:11:25.068Z,16.10
2017-08-08T04:13:52.569Z,16.13
2017-08-08T04:16:20.060Z,16.15
2017-08-08T04:18:47.523Z,16.13
2017-08-08T04:21:14.999Z,16.43
2017-08-08T04:23:42.444Z,16.63
2017-08-08T04:26:09.914Z,16.38
2017-08-08T04:28:37.357Z,16.62
2017-08-08T04:31:04.833Z,16.50
2017-08-08T04:33:32.300Z,16.19
2017-08-08T04:35:59.752Z,16.10
2017-08-08T04:38:27.197Z,16.49
2017-08-08T04:40:54.673Z,16.23
2017-08-08T04:43:22.167Z,16.20
2017-08-08T04:45:49.609Z,16.21
2017-08-08T04:48:17.061Z,16.43
2017-08-08T04:50:44.537Z,16.38
2017-08-08T04:53:12.022Z,16.59
2017-08-08T04:55:39.477Z,16.76
2017-08-08T04:58:06.926Z,17.02
2017-08-08T05:00:34.392Z,16.98
2017-08-08T05:03:01.836Z,17.12
2017-08-08T05:05:29.446Z,17.02
2017-08-08T05:07:56.889Z,17.07
2017-08-08T05:10:24.333Z,17.09
2017-08-08T05:12:51.798Z,17.10
2017-08-08T05:15:19.264Z,17.14
2017-08-08T05:17:46.709Z,17.21
2017-08-08T05:20:14.168Z,17.36
2017-08-08T05:22:41.617Z,17.30
2017-08-08T05:25:09.085Z,17.59
2017-08-08T05:27:36.545Z,17.69
2017-08-08T05:30:04.001Z,17.55
2017-08-08T05:32:31.462Z,17.66
2017-08-08T05:34:58.932Z,17.85
2017-08-08T05:37:26.409Z,17.88
2017-08-08T05:39:53.854Z,17.83
2017-08-08T05:42:21.316Z,17.88
2017-08-08T05:44:48.768Z,18.25
2017-08-08T05:47:16.255Z,18.28
2017-08-08T05:49:43.715Z,18.38
2017-08-08T05:52:11.162Z,18.26
2017-08-08T05:54:38.637Z,18.52
2017-08-08T05:57:06.084Z,18.50
2017-08-08T05:59:33.559Z,18.66
2017-08-08T06:02:01.009Z,18.53
2017-08-08T06:04:28.773Z,18.59
2017-08-08T06:06:56.223Z,18.82
2017-08-08T06:09:23.679Z,18.95
2017-08-08T06:11:51.143Z,18.74
2017-08-08T06:14:18.619Z,19.02
2017-08-08T06:16:46.060Z,19.14
2017-08-08T06:19:13.513Z,19.17
2017-08-08T06:21:40.981Z,19.23
2017-08-08T06:24:08.428Z,19.38
2017-08-08T06:26:35.888Z,19.30
2017-08-08T06:29:03.330Z,19.36
2017-08-08T06:31:30.777Z,19.43
2017-08-08T06:33:58.238Z,19.48
2017-08-08T06:36:26.264Z,19.61
2017-08-08T06:38:53.739Z,19.83
2017-08-08T06:41:21.180Z,19.87
2017-08-08T06:43:48.630Z,20.04
2017-08-08T06:46:16.100Z,19.95
2017-08-08T06:48:43.551Z,19.95
2017-08-08T06:51:11.018Z,19.99
2017-08-08T06:53:38.477Z,20.07
2017-08-08T06:56:05.938Z,20.08
2017-08-08T06:58:33.406Z,20.29
2017-08-08T07:01:00.857Z,20.44
2017-08-08T07:03:28.301Z,20.50
2017-08-08T07:05:55.769Z,20.64
2017-08-08T07:08:23.224Z,20.78
2017-08-08T07:10:50.682Z,20.63
2017-08-08T07:13:18.177Z,20.90
2017-08-08T07:15:45.620Z,20.74
2017-08-08T07:18:13.066Z,21.00
2017-08-08T07:20:40.556Z,20.84
2017-08-08T07:23:08.032Z,21.04
2017-08-08T07:25:35.474Z,21.18
2017-08-08T07:28:02.959Z,21.18
2017-08-08T07:30:30.430Z,21.37
2017-08-08T07:32:57.892Z,21.28
2017-08-08T07:35:25.383Z,21.66
2017-08-08T07:37:52.829Z,21.81
2017-08-08T07:40:20.282Z,21.61
2017-08-08T07:42:47.747Z,21.74
2017-08-08T07:45:15.190Z,21.79
2017-08-08T07:47:42.629Z,21.67
2017-08-08T07:50:10.110Z,21.70
2017-08-08T07:52:37.564Z,21.99
2017-08-08T07:55:05.053Z,22.18
2017-08-08T07:57:32.501Z,22.26
2017-08-08T07:59:59.969Z,22.40
2017-08-08T08:02:27.409Z,22.45
2017-08-08T08:04:54.888Z,22.70
2017-08-08T08:07:22.331Z,22.81
2017-08-08T08:09:49.777Z,22.80
2017-08-08T08:12:17.250Z,22.63
2017-08-08T08:14:44.689Z,22.72
2017-08-08T08:17:12.162Z,23.07
2017-08-08T08:19:39.608Z,23.06
2017-08-08T08:22:07.095Z,23.04
2017-08-08T08:24:34.550Z,23.04
2017-08-08T08:27:01.994Z,23.21
2017-08-08T08:29:29.472Z,23.40
2017-08-08T08:31:56.917Z,23.47
2017-08-08T08:34:24.352Z,23.47
2017-08-08T08:36:51.829Z,23.56
2017-08-08T08:39:19.281Z,23.68
2017-08-08T08:41:46.750Z,23.89
2017-08-08T08:44:14.234Z,23.69
2017-08-08T08:46:41.677Z,23.91
2017-08-08T08:49:09.120Z,23.98
2017-08-08T08:51:36.585Z,24.04
2017-08-08T08:54:04.034Z,24.24
2017-08-08T08:56:31.506Z,24.21
2017-08-08T08:58:58.949Z,24.07
2017-08-08T09:01:26.406Z,24.21
2017-08-08T09:03:53.869Z,24.41
2017-08-08T09:06:21.309Z,24.55
2017-08-08T09:08:48.757Z,24.63
2017-08-08T09:11:16.224Z,24.61
2017-08-08T09:13:43.667Z,24.66
2017-08-08T09:16:11.112Z,24.83
2017-08-08T09:18:38.578Z,24.96
2017-08-08T09:21:06.916Z,25.21
2017-08-08T09:23:34.388Z,25.14
2017-08-08T09:26:01.833Z,25.05
2017-08-08T09:28:29.290Z,25.63
2017-08-08T09:30:56.754Z,25.42
2017-08-08T09:33:24.193Z,25.62
2017-08-08T09:35:51.668Z,25.50
2017-08-08T09:38:19.121Z,25.65
2017-08-08T09:40:46.565Z,25.71
2017-08-08T09:43:14.026Z,25.75
2017-08-08T09:45:41.516Z,25.88
2017-08-08T09:48:08.968Z,25.94
2017-08-08T09:50:36.440Z,25.83
2017-08-08T09:53:03.912Z,26.15
2017-08-08T09:55:31.394Z,26.37
2017-08-08T09:57:58.821Z,26.46
2017-08-08T10:00:26.285Z,26.59
2017-08-08T10:02:53.729Z,26.73
2017-08-08T10:05:21.172Z,26.89
2017-08-08T10:07:48.631Z,27.28
2017-08-08T10:10:16.098Z,27.00
2017-08-08T10:12:43.559Z,27.04
2017-08-08T10:15:11.006Z,26.41
2017-08-08T10:17:38.701Z,26.81
2017-08-08T10:20:06.146Z,27.22
2017-08-08T10:22:33.592Z,27.88
2017-08-08T10:25:01.365Z,27.70
2017-08-08T10:27:28.814Z,27.52
2017-08-08T10:29:56.268Z,27.93
2017-08-08T10:32:24.050Z,28.12
2017-08-08T10:34:51.496Z,27.73
2017-08-08T10:37:18.941Z,27.48
2017-08-08T10:39:46.409Z,27.39
2017-08-08T10:42:13.877Z,27.66
2017-08-08T10:44:41.325Z,27.71
2017-08-08T10:47:08.793Z,27.90
2017-08-08T10:49:36.233Z,27.59
2017-08-08T10:52:04.037Z,27.87
2017-08-08T10:54:31.477Z,27.98
2017-08-08T10:56:58.925Z,28.02
2017-08-08T10:59:26.412Z,28.02
2017-08-08T11:01:53.857Z,28.16
2017-08-08T11:04:21.327Z,28.23
2017-08-08T11:06:48.790Z,28.21
2017-08-08T11:09:16.265Z,28.67
2017-08-08T11:11:43.709Z,28.79
2017-08-08T11:14:11.174Z,28.80
2017-08-08T11:16:38.641Z,28.54
2017-08-08T11:19:06.085Z,28.81
2017-08-08T11:21:33.545Z,28.88
2017-08-08T11:24:01.022Z,29.08
2017-08-08T11:26:28.470Z,29.17
2017-08-08T11:28:55.937Z,29.30
2017-08-08T11:31:23.400Z,29.21
2017-08-08T11:33:50.852Z,29.41
2017-08-08T11:36:18.525Z,29.19
2017-08-08T11:38:45.971Z,29.35
2017-08-08T11:41:13.422Z,29.97
2017-08-08T11:43:40.913Z,30.40
2017-08-08T11:46:08.361Z,30.97
2017-08-08T11:48:35.805Z,31.10
2017-08-08T11:51:03.267Z,31.10
2017-08-08T11:53:30.710Z,31.96
2017-08-08T11:55:58.197Z,32.28
2017-08-08T11:58:25.646Z,31.80
2017-08-08T12:00:53.094Z,32.21
2017-08-08T12:03:20.562Z,32.07
2017-08-08T12:05:48.005Z,32.43
2017-08-08T12:08:15.620Z,32.04
2017-08-08T12:10:43.150Z,32.85
2017-08-08T12:13:10.601Z,31.80
2017-08-08T12:15:38.069Z,30.54
2017-08-08T12:18:05.509Z,31.15
2017-08-08T12:20:32.958Z,31.84
2017-08-08T12:23:00.424Z,32.86
2017-08-08T12:25:27.906Z,31.57
2017-08-08T12:27:55.373Z,32.99
2017-08-08T12:30:22.818Z,33.00
2017-08-08T12:32:50.296Z,33.53
2017-08-08T12:35:17.749Z,32.33
2017-08-08T12:37:45.199Z,33.19
2017-08-08T12:40:12.673Z,32.95
2017-08-08T12:42:40.125Z,33.28
2017-08-08T12:45:07.613Z,34.15
2017-08-08T12:47:35.057Z,33.51
2017-08-08T12:50:02.501Z,34.26
2017-08-08T12:52:30.190Z,34.34
2017-08-08T12:54:57.628Z,34.32
2017-08-08T12:57:25.068Z,34.77
2017-08-08T12:59:52.537Z,34.30
2017-08-08T13:02:20.030Z,33.26
2017-08-08T13:04:47.476Z,33.54
2017-08-08T13:07:15.152Z,33.95
2017-08-08T13:09:42.598Z,35.35
2017-08-08T13:12:10.057Z,34.74
2017-08-08T13:14:37.591Z,34.85
2017-08-08T13:17:05.038Z,33.68
2017-08-08T13:19:32.484Z,33.91
2017-08-08T13:21:59.948Z,33.61
2017-08-08T13:24:27.425Z,33.42
2017-08-08T13:26:54.894Z,34.18
2017-08-08T13:29:22.350Z,34.68
2017-08-08T13:31:49.824Z,34.35
2017-08-08T13:34:17.297Z,34.74
2017-08-08T13:36:44.750Z,34.76
2017-08-08T13:39:12.197Z,35.44
2017-08-08T13:41:39.659Z,35.51
2017-08-08T13:44:07.137Z,35.56
2017-08-08T13:46:34.579Z,35.75
2017-08-08T13:49:02.042Z,35.00
2017-08-08T13:51:29.506Z,35.58
2017-08-08T13:53:56.957Z,35.38
2017-08-08T13:56:24.422Z,36.83
2017-08-08T13:58:51.877Z,35.25
2017-08-08T14:01:19.330Z,35.28
2017-08-08T14:03:46.897Z,36.44
2017-08-08T14:06:14.351Z,35.10
2017-08-08T14:08:41.818Z,34.73
2017-08-08T14:11:09.297Z,35.08
2017-08-08T14:13:36.736Z,35.00
2017-08-08T14:16:04.176Z,35.59
2017-08-08T14:18:31.647Z,35.11
2017-08-08T14:20:59.119Z,34.68
2017-08-08T14:23:26.569Z,35.84
2017-08-08T14:25:54.953Z,36.79
2017-08-08T14:28:22.421Z,35.02
2017-08-08T14:30:49.886Z,36.69
2017-08-08T14:33:17.360Z,34.81
2017-08-08T14:35:44.834Z,36.12
2017-08-08T14:38:12.328Z,35.66
2017-08-08T14:40:39.770Z,35.34
2017-08-08T14:43:07.221Z,36.00
2017-08-08T14:45:34.701Z,35.52
2017-08-08T14:48:02.144Z,35.52
2017-08-08T14:50:29.589Z,35.71
2017-08-08T14:52:57.063Z,34.07
2017-08-08T14:55:24.510Z,34.89
2017-08-08T14:57:51.957Z,35.91
2017-08-08T15:00:19.442Z,34.73
2017-08-08T15:02:46.889Z,35.02
2017-08-08T15:05:14.341Z,35.87
2017-08-08T15:07:41.825Z,33.89
2017-08-08T15:10:09.274Z,36.21
2017-08-08T15:12:36.717Z,35.74
2017-08-08T15:15:04.187Z,35.87
2017-08-08T15:17:31.656Z,35.35
2017-08-08T15:19:59.106Z,34.73
2017-08-08T15:22:26.574Z,35.72
2017-08-08T15:24:54.042Z,35.23
2017-08-08T15:27:21.484Z,35.40
2017-08-08T15:29:48.928Z,35.33
2017-08-08T15:32:16.629Z,35.80
2017-08-08T15:34:44.078Z,36.04
2017-08-08T15:37:11.600Z,34.79
2017-08-08T15:39:39.061Z,34.84
2017-08-08T15:42:06.517Z,34.62
2017-08-08T15:44:33.964Z,35.42
2017-08-08T15:47:01.433Z,34.32
2017-08-08T15:49:28.894Z,33.72
2017-08-08T15:51:56.366Z,33.26
2017-08-08T15:54:23.833Z,33.05
2017-08-08T15:56:51.397Z,33.28
2017-08-08T15:59:18.856Z,32.24
2017-08-08T16:01:46.349Z,31.81
2017-08-08T16:04:13.813Z,31.07
2017-08-08T16:06:41.306Z,31.37
2017-08-08T16:09:08.779Z,31.06
2017-08-08T16:11:36.224Z,30.86
2017-08-08T16:14:03.677Z,30.91
2017-08-08T16:16:31.149Z,31.82
2017-08-08T16:18:58.610Z,31.31
2017-08-08T16:21:27.400Z,30.83
2017-08-08T16:23:54.900Z,30.92
2017-08-08T16:26:22.364Z,32.38
2017-08-08T16:28:49.830Z,33.10
2017-08-08T16:31:18.014Z,34.46
2017-08-08T16:33:45.457Z,32.99
2017-08-08T16:36:12.901Z,34.02
2017-08-08T16:38:41.030Z,34.97
2017-08-08T16:41:09.424Z,33.78
2017-08-08T16:43:36.865Z,33.83
2017-08-08T16:46:04.368Z,34.48
2017-08-08T16:48:31.833Z,34.46
2017-08-08T16:50:59.497Z,34.09
2017-08-08T16:53:26.957Z,34.29
2017-08-08T16:55:54.413Z,34.51
2017-08-08T16:58:21.877Z,33.40
2017-08-08T17:00:49.332Z,33.65
2017-08-08T17:03:16.803Z,33.10
2017-08-08T17:05:44.274Z,33.96
2017-08-08T17:08:11.717Z,33.68
2017-08-08T17:10:39.168Z,33.05
2017-08-08T17:13:06.638Z,32.24
2017-08-08T17:15:34.082Z,31.33
2017-08-08T17:18:01.556Z,31.37
2017-08-08T17:20:28.997Z,31.31
2017-08-08T17:22:56.433Z,31.41
2017-08-08T17:25:23.934Z,30.98
2017-08-08T17:27:51.376Z,31.52
2017-08-08T17:30:18.826Z,31.57
2017-08-08T17:32:46.294Z,31.59
2017-08-08T17:35:14.233Z,31.19
2017-08-08T17:37:41.705Z,30.54
2017-08-08T17:40:09.200Z,30.40
2017-08-08T17:42:36.649Z,29.54
2017-08-08T17:45:04.123Z,28.93
2017-08-08T17:47:31.560Z,28.35
2017-08-08T17:49:59.041Z,28.65
2017-08-08T17:52:26.506Z,28.31
2017-08-08T17:54:53.957Z,28.13
2017-08-08T17:57:21.435Z,27.56
2017-08-08T17:59:48.908Z,27.91
2017-08-08T18:02:16.346Z,27.55
2017-08-08T18:04:43.817Z,27.50
2017-08-08T18:07:11.285Z,27.29
2017-08-08T18:09:38.811Z,27.47
2017-08-08T18:12:06.500Z,26.93
2017-08-08T18:14:33.950Z,26.52
2017-08-08T18:17:01.424Z,26.51
2017-08-08T18:19:28.893Z,26.26
2017-08-08T18:21:56.339Z,26.21
2017-08-08T18:24:23.796Z,26.21
2017-08-08T18:26:51.268Z,26.43
2017-08-08T18:29:18.717Z,26.28
2017-08-08T18:31:46.163Z,26.01
2017-08-08T18:34:13.880Z,25.73
2017-08-08T18:36:41.326Z,25.83
2017-08-08T18:39:08.770Z,25.81
2017-08-08T18:41:36.250Z,25.49
2017-08-08T18:44:03.724Z,25.46
2017-08-08T18:46:32.400Z,25.33
2017-08-08T18:48:59.853Z,25.45
2017-08-08T18:51:28.204Z,25.29
2017-08-08T18:53:55.663Z,25.20
2017-08-08T18:56:23.110Z,25.03
2017-08-08T18:58:50.714Z,25.00
2017-08-08T19:01:19.005Z,25.00
2017-08-08T19:03:46.489Z,25.20
2017-08-08T19:06:14.023Z,25.13
2017-08-08T19:08:41.481Z,25.23
2017-08-08T19:11:10.089Z,25.33
2017-08-08T19:13:37.551Z,24.98
2017-08-08T19:16:05.001Z,24.85
2017-08-08T19:18:32.473Z,24.65
2017-08-08T19:20:59.964Z,24.69
2017-08-08T19:23:28.975Z,24.67
2017-08-08T19:25:56.668Z,24.45
2017-08-08T19:28:24.476Z,24.35
2017-08-08T19:30:51.931Z,24.29
2017-08-08T19:33:20.021Z,24.23
2017-08-08T19:35:47.670Z,24.19
2017-08-08T19:38:15.138Z,24.16
2017-08-08T19:40:42.612Z,24.07
2017-08-08T19:43:10.389Z,24.18
2017-08-08T19:45:39.397Z,24.06
2017-08-08T19:48:07.464Z,23.94
2017-08-08T19:50:35.282Z,23.88
2017-08-08T19:53:02.763Z,23.89
2017-08-08T19:55:30.989Z,23.84
2017-08-08T19:57:58.455Z,23.92
2017-08-08T20:00:25.905Z,23.81
2017-08-08T20:02:53.384Z,23.85
2017-08-08T20:05:21.363Z,23.77
2017-08-08T20:07:48.820Z,23.69
2017-08-08T20:10:16.316Z,23.62
2017-08-08T20:12:43.807Z,23.57
2017-08-08T20:15:12.230Z,23.36
2017-08-08T20:17:40.378Z,23.23
2017-08-08T20:20:08.173Z,23.22
2017-08-08T20:22:35.622Z,22.97
2017-08-08T20:25:03.065Z,22.95
2017-08-08T20:27:30.541Z,22.83
2017-08-08T20:29:58.001Z,22.88
2017-08-08T20:32:25.481Z,23.12
2017-08-08T20:34:52.957Z,23.11
2017-08-08T20:37:20.432Z,23.04
2017-08-08T20:39:47.877Z,23.04
2017-08-08T20:42:15.362Z,22.91
2017-08-08T20:44:42.813Z,22.99
2017-08-08T20:47:10.258Z,22.98
2017-08-08T20:49:37.738Z,22.82
2017-08-08T20:52:05.245Z,22.93
2017-08-08T20:54:33.565Z,22.97
2017-08-08T20:57:01.022Z,22.87
2017-08-08T20:59:28.488Z,23.09
2017-08-08T21:01:55.933Z,23.09
2017-08-08T21:04:23.396Z,23.17
2017-08-08T21:06:51.153Z,23.14
2017-08-08T21:09:18.601Z,23.17
2017-08-08T21:11:46.045Z,23.11
2017-08-08T21:14:13.517Z,23.16
2017-08-08T21:16:41.125Z,23.16
2017-08-08T21:19:08.572Z,23.09
2017-08-08T21:21:36.020Z,23.05
2017-08-08T21:24:03.519Z,23.15
2017-08-08T21:26:31.009Z,23.09
2017-08-08T21:28:58.458Z,23.08
2017-08-08T21:31:25.913Z,23.06
2017-08-08T21:33:53.376Z,23.02
2017-08-08T21:36:20.839Z,23.04
2017-08-08T21:38:48.295Z,23.08
2017-08-08T21:41:15.771Z,23.08
2017-08-08T21:43:43.346Z,23.11
2017-08-08T21:46:10.800Z,22.94
2017-08-08T21:48:38.249Z,22.86
2017-08-08T21:51:06.429Z,22.78
2017-08-08T21:53:33.922Z,22.29
2017-08-08T21:56:01.572Z,21.06
2017-08-08T21:58:29.016Z,19.96
2017-08-08T22:00:56.460Z,19.81
2017-08-08T22:03:23.938Z,19.05
2017-08-08T22:05:51.377Z,18.77
2017-08-08T22:08:18.819Z,18.30
2017-08-08T22:10:46.289Z,18.17
2017-08-08T22:13:14.107Z,18.18
2017-08-08T22:15:41.553Z,18.30
2017-08-08T22:18:08.997Z,18.22
2017-08-08T22:20:36.469Z,18.30
2017-08-08T22:23:03.918Z,18.43
2017-08-08T22:25:31.396Z,18.29
2017-08-08T22:27:58.837Z,18.38
2017-08-08T22:30:26.300Z,18.31
2017-08-08T22:32:53.764Z,18.30
2017-08-08T22:35:21.206Z,18.31
2017-08-08T22:37:48.784Z,18.45
2017-08-08T22:40:16.225Z,18.35
2017-08-08T22:42:43.669Z,18.28
2017-08-08T22:45:11.168Z,18.32
2017-08-08T22:47:38.614Z,18.16
2017-08-08T22:50:06.085Z,18.11
2017-08-08T22:52:33.537Z,18.12
2017-08-08T22:55:01.006Z,18.21
2017-08-08T22:57:28.482Z,18.17
2017-08-08T22:59:55.928Z,18.17
2017-08-08T23:02:23.371Z,18.08
2017-08-08T23:04:51.074Z,18.22
2017-08-08T23:07:18.533Z,18.18
2017-08-08T23:09:45.977Z,18.18
2017-08-08T23:12:13.585Z,18.25
2017-08-08T23:14:41.026Z,18.22
2017-08-08T23:17:08.474Z,18.30
2017-08-08T23:19:35.941Z,18.29
2017-08-08T23:22:03.393Z,18.30
2017-08-08T23:24:30.833Z,18.25
2017-08-08T23:26:58.312Z,18.25
2017-08-08T23:29:25.761Z,18.23
2017-08-08T23:31:53.207Z,18.24
2017-08-08T23:34:20.681Z,18.26
2017-08-08T23:36:48.132Z,18.32
2017-08-08T23:39:15.611Z,18.30
2017-08-08T23:41:43.052Z,18.35
2017-08-08T23:44:10.522Z,18.35
2017-08-08T23:46:37.964Z,18.35
2017-08-08T23:49:05.408Z,18.35
2017-08-08T23:51:32.886Z,18.39
2017-08-08T23:54:00.337Z,18.37
2017-08-08T23:56:28.771Z,18.42
2017-08-08T23:58:56.241Z,18.44
